createdAt,value
2018-09-03T00:00:00.447Z,5.47
2018-09-03T00:02:29.916Z,6.30
2018-09-03T00:04:58.240Z,5.43
2018-09-03T00:07:26.830Z,5.33
2018-09-03T00:09:55.151Z,5.23
2018-09-03T00:12:23.495Z,5.20
2018-09-03T00:14:51.815Z,4.80
2018-09-03T00:17:20.513Z,5.10
2018-09-03T00:19:48.844Z,5.70
2018-09-03T00:22:17.204Z,5.53
2018-09-03T00:24:45.536Z,5.50
2018-09-03T00:27:13.908Z,5.37
2018-09-03T00:29:42.228Z,5.57
2018-09-03T00:32:15.920Z,4.87
2018-09-03T00:34:49.444Z,5.77
2018-09-03T00:37:23.092Z,5.57
2018-09-03T00:39:57.316Z,5.23
2018-09-03T00:42:30.900Z,5.40
2018-09-03T00:45:04.452Z,4.87
2018-09-03T00:47:32.808Z,5.47
2018-09-03T00:50:01.687Z,4.90
2018-09-03T00:52:30.048Z,5.47
2018-09-03T00:54:58.424Z,5.13
2018-09-03T00:57:26.752Z,5.40
2018-09-03T00:59:55.076Z,5.33
2018-09-03T01:02:23.472Z,5.37
2018-09-03T01:04:51.803Z,5.10
2018-09-03T01:07:20.560Z,5.33
2018-09-03T01:09:48.890Z,5.17
2018-09-03T01:12:17.248Z,5.10
2018-09-03T01:14:45.564Z,5.27
2018-09-03T01:17:13.917Z,5.43
2018-09-03T01:19:42.252Z,5.23
2018-09-03T01:22:10.608Z,5.23
2018-09-03T01:24:38.952Z,5.50
2018-09-03T01:27:07.341Z,5.70
2018-09-03T01:29:35.782Z,5.53
2018-09-03T01:32:04.076Z,5.30
2018-09-03T01:34:32.429Z,6.50
2018-09-03T01:37:00.773Z,6.17
2018-09-03T01:39:29.131Z,6.53
2018-09-03T01:41:57.456Z,6.27
2018-09-03T01:44:25.808Z,6.20
2018-09-03T01:46:54.372Z,6.80
2018-09-03T01:49:22.728Z,6.03
2018-09-03T01:51:51.575Z,6.53
2018-09-03T01:54:19.944Z,6.80
2018-09-03T01:56:48.284Z,6.90
2018-09-03T01:59:16.648Z,6.53
2018-09-03T02:01:45.357Z,6.40
2018-09-03T02:04:13.708Z,6.63
2018-09-03T02:06:42.063Z,6.80
2018-09-03T02:09:11.971Z,6.63
2018-09-03T02:11:40.828Z,6.33
2018-09-03T02:14:09.196Z,6.60
2018-09-03T02:16:38.420Z,6.90
2018-09-03T02:19:07.222Z,6.60
2018-09-03T02:21:35.548Z,6.13
2018-09-03T02:24:03.952Z,6.30
2018-09-03T02:26:32.369Z,7.57
2018-09-03T02:29:01.076Z,7.17
2018-09-03T02:31:29.400Z,6.73
2018-09-03T02:33:57.732Z,6.63
2018-09-03T02:36:26.061Z,6.87
2018-09-03T02:38:54.465Z,6.83
2018-09-03T02:41:22.816Z,7.00
2018-09-03T02:43:51.163Z,7.77
2018-09-03T02:46:19.492Z,7.50
2018-09-03T02:48:47.845Z,8.27
2018-09-03T02:51:16.184Z,8.30
2018-09-03T02:53:44.540Z,7.50
2018-09-03T02:56:12.888Z,7.63
2018-09-03T02:58:41.236Z,8.23
2018-09-03T03:01:09.573Z,7.73
2018-09-03T03:03:37.935Z,7.83
2018-09-03T03:06:06.328Z,7.00
2018-09-03T03:08:34.704Z,7.23
2018-09-03T03:11:03.040Z,7.00
2018-09-03T03:13:31.392Z,6.57
2018-09-03T03:16:00.062Z,6.83
2018-09-03T03:18:28.424Z,7.23
2018-09-03T03:20:56.755Z,6.70
2018-09-03T03:23:25.088Z,7.33
2018-09-03T03:25:53.399Z,6.83
2018-09-03T03:28:21.755Z,6.73
2018-09-03T03:30:50.120Z,7.03
2018-09-03T03:33:18.463Z,7.10
2018-09-03T03:35:46.820Z,7.37
2018-09-03T03:38:15.159Z,7.90
2018-09-03T03:40:43.488Z,7.80
2018-09-03T03:43:11.820Z,8.03
2018-09-03T03:45:40.176Z,7.93
2018-09-03T03:48:08.516Z,7.63
2018-09-03T03:50:36.855Z,7.87
2018-09-03T03:53:05.220Z,7.67
2018-09-03T03:55:33.588Z,7.80
2018-09-03T03:58:01.923Z,7.57
2018-09-03T04:00:30.276Z,7.20
2018-09-03T04:02:58.617Z,7.47
2018-09-03T04:05:26.951Z,7.47
2018-09-03T04:07:55.531Z,7.70
2018-09-03T04:10:23.891Z,8.17
2018-09-03T04:12:54.836Z,8.37
2018-09-03T04:15:24.217Z,8.07
2018-09-03T04:17:52.563Z,8.93
2018-09-03T04:20:20.959Z,8.03
2018-09-03T04:22:49.329Z,7.97
2018-09-03T04:25:17.684Z,8.47
2018-09-03T04:27:46.023Z,8.47
2018-09-03T04:30:14.396Z,7.93
2018-09-03T04:32:42.720Z,8.03
2018-09-03T04:35:11.075Z,7.70
2018-09-03T04:37:39.406Z,7.47
2018-09-03T04:40:07.796Z,8.20
2018-09-03T04:42:36.127Z,8.53
2018-09-03T04:45:04.507Z,7.77
2018-09-03T04:47:32.828Z,7.43
2018-09-03T04:50:01.172Z,7.90
2018-09-03T04:52:29.508Z,7.70
2018-09-03T04:54:57.872Z,7.70
2018-09-03T04:57:26.220Z,7.27
2018-09-03T04:59:54.887Z,8.10
2018-09-03T05:02:23.500Z,7.73
2018-09-03T05:04:51.852Z,7.63
2018-09-03T05:07:20.208Z,7.33
2018-09-03T05:09:48.573Z,7.77
2018-09-03T05:12:16.923Z,6.87
2018-09-03T05:14:45.679Z,7.03
2018-09-03T05:17:13.992Z,7.53
2018-09-03T05:19:42.349Z,7.80
2018-09-03T05:22:10.696Z,7.40
2018-09-03T05:24:39.041Z,6.97
2018-09-03T05:27:07.424Z,7.50
2018-09-03T05:29:35.828Z,6.73
2018-09-03T05:32:04.144Z,7.17
2018-09-03T05:34:32.476Z,7.70
2018-09-03T05:37:00.801Z,7.30
2018-09-03T05:39:29.160Z,7.20
2018-09-03T05:41:57.508Z,7.07
2018-09-03T05:44:25.859Z,7.27
2018-09-03T05:46:54.223Z,7.80
2018-09-03T05:49:22.580Z,7.60
2018-09-03T05:51:50.921Z,7.93
2018-09-03T05:54:19.461Z,6.50
2018-09-03T05:56:47.814Z,6.90
2018-09-03T05:59:16.210Z,6.63
2018-09-03T06:01:44.584Z,6.87
2018-09-03T06:04:13.344Z,7.20
2018-09-03T06:06:41.701Z,6.47
2018-09-03T06:09:11.702Z,6.47
2018-09-03T06:11:40.312Z,7.10
2018-09-03T06:14:08.980Z,6.73
2018-09-03T06:16:37.331Z,6.80
2018-09-03T06:19:05.688Z,7.40
2018-09-03T06:21:34.078Z,7.53
2018-09-03T06:24:02.436Z,7.73
2018-09-03T06:26:30.794Z,7.37
2018-09-03T06:28:59.169Z,7.07
2018-09-03T06:31:27.765Z,7.80
2018-09-03T06:33:56.088Z,7.40
2018-09-03T06:36:24.463Z,6.93
2018-09-03T06:38:52.828Z,6.90
2018-09-03T06:41:21.185Z,7.03
2018-09-03T06:43:49.524Z,6.80
2018-09-03T06:46:18.148Z,6.83
2018-09-03T06:48:46.484Z,6.83
2018-09-03T06:51:15.128Z,7.30
2018-09-03T06:53:43.492Z,7.90
2018-09-03T06:56:11.824Z,6.30
2018-09-03T06:58:40.168Z,6.47
2018-09-03T07:01:08.512Z,6.80
2018-09-03T07:03:37.079Z,6.77
2018-09-03T07:06:06.320Z,6.90
2018-09-03T07:08:34.704Z,6.10
2018-09-03T07:11:03.056Z,6.73
2018-09-03T07:13:31.487Z,6.13
2018-09-03T07:15:59.827Z,6.50
2018-09-03T07:18:28.157Z,6.97
2018-09-03T07:20:56.504Z,6.93
2018-09-03T07:23:24.849Z,7.43
2018-09-03T07:25:53.204Z,6.97
2018-09-03T07:28:21.859Z,6.70
2018-09-03T07:30:50.212Z,7.37
2018-09-03T07:33:18.585Z,6.53
2018-09-03T07:35:46.899Z,6.33
2018-09-03T07:38:15.241Z,7.13
2018-09-03T07:40:43.589Z,7.13
2018-09-03T07:43:11.940Z,6.70
2018-09-03T07:45:40.284Z,6.90
2018-09-03T07:48:08.656Z,6.53
2018-09-03T07:50:36.975Z,7.20
2018-09-03T07:53:05.691Z,6.40
2018-09-03T07:55:34.032Z,6.20
2018-09-03T07:58:03.092Z,6.80
2018-09-03T08:00:31.418Z,6.83
2018-09-03T08:02:59.848Z,7.00
2018-09-03T08:05:28.180Z,6.40
2018-09-03T08:07:56.601Z,6.40
2018-09-03T08:10:24.903Z,6.73
2018-09-03T08:12:53.387Z,7.07
2018-09-03T08:15:21.744Z,6.70
2018-09-03T08:17:50.657Z,7.10
2018-09-03T08:20:19.011Z,7.30
2018-09-03T08:22:47.368Z,7.13
2018-09-03T08:25:15.711Z,7.57
2018-09-03T08:27:44.092Z,7.90
2018-09-03T08:30:12.483Z,7.67
2018-09-03T08:32:41.155Z,7.67
2018-09-03T08:35:09.684Z,7.00
2018-09-03T08:37:38.036Z,13.20
2018-09-03T08:40:06.556Z,20.60
2018-09-03T08:42:34.904Z,7.20
2018-09-03T08:45:03.226Z,6.70
2018-09-03T08:47:31.586Z,7.80
2018-09-03T08:49:59.924Z,6.90
2018-09-03T08:52:28.276Z,6.87
2018-09-03T08:54:56.624Z,7.50
2018-09-03T08:57:24.996Z,6.07
2018-09-03T08:59:53.320Z,6.33
2018-09-03T09:02:21.712Z,7.10
2018-09-03T09:04:50.052Z,6.50
2018-09-03T09:07:18.421Z,7.60
2018-09-03T09:09:46.789Z,7.07
2018-09-03T09:12:15.140Z,6.83
2018-09-03T09:14:43.501Z,7.30
2018-09-03T09:17:11.872Z,7.67
2018-09-03T09:19:40.199Z,7.47
2018-09-03T09:22:08.543Z,7.17
2018-09-03T09:24:36.903Z,7.53
2018-09-03T09:27:05.816Z,6.33
2018-09-03T09:29:34.171Z,6.50
2018-09-03T09:32:02.560Z,7.00
2018-09-03T09:34:30.880Z,7.33
2018-09-03T09:36:59.268Z,6.83
2018-09-03T09:39:27.997Z,7.03
2018-09-03T09:41:56.369Z,7.43
2018-09-03T09:44:24.700Z,6.90
2018-09-03T09:46:53.513Z,7.47
2018-09-03T09:49:22.337Z,7.03
2018-09-03T09:51:50.821Z,17.50
2018-09-03T09:54:19.160Z,6.13
2018-09-03T09:56:48.008Z,6.90
2018-09-03T09:59:16.359Z,5.93
2018-09-03T10:01:44.685Z,5.87
2018-09-03T10:04:13.045Z,5.67
2018-09-03T10:06:41.388Z,6.00
2018-09-03T10:09:09.725Z,6.10
2018-09-03T10:11:38.052Z,5.87
2018-09-03T10:14:07.355Z,5.67
2018-09-03T10:16:35.776Z,6.60
2018-09-03T10:19:04.169Z,6.40
2018-09-03T10:21:32.491Z,5.83
2018-09-03T10:24:00.848Z,5.87
2018-09-03T10:26:29.224Z,6.20
2018-09-03T10:28:57.600Z,5.70
2018-09-03T10:31:26.964Z,5.63
2018-09-03T10:33:55.312Z,5.00
2018-09-03T10:36:23.648Z,5.83
2018-09-03T10:38:51.992Z,5.60
2018-09-03T10:41:20.956Z,6.30
2018-09-03T10:43:49.436Z,6.07
2018-09-03T10:46:17.781Z,6.07
2018-09-03T10:48:46.129Z,6.20
2018-09-03T10:51:14.465Z,6.73
2018-09-03T10:53:42.862Z,6.47
2018-09-03T10:56:11.196Z,6.20
2018-09-03T10:58:39.556Z,6.73
2018-09-03T11:01:07.897Z,7.00
2018-09-03T11:03:36.260Z,6.60
2018-09-03T11:06:04.892Z,5.30
2018-09-03T11:08:33.240Z,5.80
2018-09-03T11:11:01.582Z,5.50
2018-09-03T11:13:30.295Z,5.73
2018-09-03T11:15:58.620Z,6.00
2018-09-03T11:18:28.676Z,5.10
2018-09-03T11:20:57.020Z,5.53
2018-09-03T11:23:25.384Z,5.40
2018-09-03T11:25:53.720Z,5.20
2018-09-03T11:28:22.053Z,5.13
2018-09-03T11:30:50.581Z,5.60
2018-09-03T11:33:19.339Z,5.63
2018-09-03T11:35:47.697Z,5.20
2018-09-03T11:38:16.040Z,5.23
2018-09-03T11:40:44.856Z,5.10
2018-09-03T11:43:13.272Z,4.83
2018-09-03T11:45:41.600Z,5.03
2018-09-03T11:48:10.360Z,5.63
2018-09-03T11:50:39.175Z,5.67
2018-09-03T11:53:07.526Z,5.00
2018-09-03T11:55:35.893Z,5.50
2018-09-03T11:58:04.293Z,5.40
2018-09-03T12:00:32.697Z,6.87
2018-09-03T12:03:01.047Z,5.33
2018-09-03T12:05:29.917Z,5.30
2018-09-03T12:07:58.371Z,5.37
2018-09-03T12:10:26.740Z,5.67
2018-09-03T12:12:55.097Z,5.00
2018-09-03T12:15:32.836Z,5.60
2018-09-03T12:18:01.189Z,4.80
2018-09-03T12:20:29.548Z,5.47
2018-09-03T12:22:57.879Z,6.10
2018-09-03T12:25:26.240Z,6.10
2018-09-03T12:27:54.568Z,5.90
2018-09-03T12:30:23.877Z,5.93
2018-09-03T12:32:52.208Z,5.80
2018-09-03T12:35:20.560Z,5.70
2018-09-03T12:37:49.392Z,6.20
2018-09-03T12:40:17.743Z,6.23
2018-09-03T12:42:46.128Z,5.93
2018-09-03T12:45:14.469Z,6.00
2018-09-03T12:47:43.425Z,6.70
2018-09-03T12:50:11.814Z,6.40
2018-09-03T12:52:40.108Z,6.90
2018-09-03T12:55:08.466Z,6.93
2018-09-03T12:57:36.796Z,6.80
2018-09-03T13:00:05.755Z,7.53
2018-09-03T13:02:39.419Z,6.57
2018-09-03T13:05:02.391Z,6.80
2018-09-03T13:07:30.711Z,6.80
2018-09-03T13:09:59.056Z,7.00
2018-09-03T13:12:27.390Z,6.80
2018-09-03T13:14:55.740Z,6.50
2018-09-03T13:17:24.060Z,7.00
2018-09-03T13:19:52.399Z,7.83
2018-09-03T13:22:20.724Z,7.17
2018-09-03T13:24:49.377Z,8.00
2018-09-03T13:27:17.861Z,9.00
2018-09-03T13:29:46.212Z,7.30
2018-09-03T13:32:14.544Z,7.70
2018-09-03T13:34:42.892Z,7.93
2018-09-03T13:37:11.236Z,7.47
2018-09-03T13:39:39.612Z,8.23
2018-09-03T13:42:07.981Z,7.43
2018-09-03T13:44:36.309Z,11.87
2018-09-03T13:47:05.047Z,12.80
2018-09-03T13:49:33.392Z,7.87
2018-09-03T13:52:01.736Z,8.27
2018-09-03T13:54:30.189Z,8.73
2018-09-03T13:56:58.566Z,8.07
2018-09-03T13:59:28.131Z,8.33
2018-09-03T14:01:57.965Z,8.27
2018-09-03T14:04:26.968Z,9.23
2018-09-03T14:06:55.516Z,8.27
2018-09-03T14:09:24.287Z,8.37
2018-09-03T14:11:53.313Z,8.23
2018-09-03T14:14:22.122Z,7.70
2018-09-03T14:16:54.189Z,8.63
2018-09-03T14:19:22.728Z,7.50
2018-09-03T14:21:51.117Z,9.07
2018-09-03T14:24:19.492Z,8.47
2018-09-03T14:26:47.944Z,19.33
2018-09-03T14:29:16.503Z,40.43
2018-09-03T14:31:45.568Z,7.93
2018-09-03T14:34:14.727Z,9.17
2018-09-03T14:36:44.580Z,8.50
2018-09-03T14:39:14.004Z,9.13
2018-09-03T14:41:43.272Z,9.17
2018-09-03T14:44:13.012Z,8.73
2018-09-03T14:46:42.584Z,8.80
2018-09-03T14:49:12.132Z,9.43
2018-09-03T14:51:40.481Z,8.70
2018-09-03T14:54:08.880Z,9.23
2018-09-03T14:56:38.249Z,9.37
2018-09-03T14:59:06.651Z,9.93
2018-09-03T15:01:35.124Z,10.07
2018-09-03T15:04:04.525Z,10.40
2018-09-03T15:06:33.967Z,9.57
2018-09-03T15:09:03.216Z,9.37
2018-09-03T15:11:32.574Z,10.00
2018-09-03T15:14:03.424Z,9.90
2018-09-03T15:16:35.092Z,10.13
2018-09-03T15:19:05.061Z,9.43
2018-09-03T15:21:34.668Z,8.90
2018-09-03T15:24:04.121Z,9.43
2018-09-03T15:26:32.650Z,10.70
2018-09-03T15:29:00.919Z,9.90
2018-09-03T15:31:30.336Z,9.70
2018-09-03T15:33:58.676Z,9.87
2018-09-03T15:36:27.213Z,59.47
2018-09-03T15:38:56.269Z,42.50
2018-09-03T15:41:24.728Z,10.57
2018-09-03T15:43:53.112Z,10.13
2018-09-03T15:46:21.483Z,10.20
2018-09-03T15:48:50.436Z,10.20
2018-09-03T15:51:20.891Z,9.93
2018-09-03T15:53:52.448Z,9.43
2018-09-03T15:56:22.332Z,10.13
2018-09-03T15:58:50.645Z,9.40
2018-09-03T16:01:20.545Z,10.00
2018-09-03T16:03:48.943Z,9.93
2018-09-03T16:06:17.289Z,10.03
2018-09-03T16:08:45.624Z,9.97
2018-09-03T16:11:15.072Z,9.50
2018-09-03T16:13:45.470Z,10.20
2018-09-03T16:16:14.768Z,9.47
2018-09-03T16:18:45.752Z,9.70
2018-09-03T16:21:15.360Z,9.37
2018-09-03T16:23:44.159Z,9.43
2018-09-03T16:26:13.211Z,9.43
2018-09-03T16:28:43.085Z,9.43
2018-09-03T16:31:11.729Z,9.70
2018-09-03T16:33:40.140Z,9.67
2018-09-03T16:36:08.556Z,10.03
2018-09-03T16:38:36.919Z,10.40
2018-09-03T16:41:05.308Z,10.13
2018-09-03T16:43:33.652Z,10.20
2018-09-03T16:46:02.025Z,10.13
2018-09-03T16:48:30.352Z,21.80
2018-09-03T16:50:58.691Z,11.40
2018-09-03T16:53:27.104Z,10.70
2018-09-03T16:55:55.432Z,9.83
2018-09-03T16:58:23.808Z,10.20
2018-09-03T17:00:52.213Z,11.13
2018-09-03T17:03:20.566Z,10.43
2018-09-03T17:05:48.875Z,10.83
2018-09-03T17:08:17.389Z,11.53
2018-09-03T17:10:46.048Z,11.17
2018-09-03T17:13:14.463Z,10.07
2018-09-03T17:15:42.764Z,11.13
2018-09-03T17:18:11.624Z,10.67
2018-09-03T17:20:39.946Z,11.77
2018-09-03T17:23:08.320Z,10.10
2018-09-03T17:25:36.663Z,11.80
2018-09-03T17:28:05.034Z,12.10
2018-09-03T17:30:33.420Z,11.73
2018-09-03T17:33:02.080Z,11.93
2018-09-03T17:35:30.418Z,16.60
2018-09-03T17:37:59.036Z,11.87
2018-09-03T17:40:27.372Z,11.80
2018-09-03T17:42:55.900Z,11.33
2018-09-03T17:45:24.257Z,13.10
2018-09-03T17:47:52.656Z,13.47
2018-09-03T17:50:20.988Z,12.90
2018-09-03T17:52:49.340Z,12.23
2018-09-03T17:55:17.698Z,12.80
2018-09-03T17:57:46.064Z,12.63
2018-09-03T18:00:14.644Z,12.60
2018-09-03T18:02:42.996Z,13.00
2018-09-03T18:05:11.368Z,12.30
2018-09-03T18:07:39.871Z,13.40
2018-09-03T18:10:08.213Z,13.27
2018-09-03T18:12:36.592Z,14.00
2018-09-03T18:15:04.964Z,13.93
2018-09-03T18:17:33.340Z,14.33
2018-09-03T18:20:01.680Z,14.60
2018-09-03T18:22:30.037Z,13.93
2018-09-03T18:24:58.775Z,14.27
2018-09-03T18:27:27.137Z,13.97
2018-09-03T18:29:55.476Z,13.90
2018-09-03T18:32:23.849Z,14.87
2018-09-03T18:34:52.436Z,14.37
2018-09-03T18:37:20.792Z,13.90
2018-09-03T18:39:49.357Z,14.40
2018-09-03T18:42:17.698Z,15.10
2018-09-03T18:44:46.068Z,14.80
2018-09-03T18:47:14.837Z,14.70
2018-09-03T18:49:43.253Z,14.83
2018-09-03T18:52:11.636Z,13.50
2018-09-03T18:54:39.983Z,15.30
2018-09-03T18:57:08.636Z,13.60
2018-09-03T18:59:37.027Z,13.33
2018-09-03T19:02:05.420Z,14.40
2018-09-03T19:04:33.758Z,14.13
2018-09-03T19:07:02.109Z,13.00
2018-09-03T19:09:30.456Z,14.13
2018-09-03T19:11:58.841Z,13.53
2018-09-03T19:14:27.188Z,14.20
2018-09-03T19:16:55.524Z,14.27
2018-09-03T19:19:23.917Z,13.80
2018-09-03T19:21:52.268Z,14.20
2018-09-03T19:24:20.603Z,13.70
2018-09-03T19:26:48.947Z,14.67
2018-09-03T19:29:17.292Z,14.37
2018-09-03T19:31:45.705Z,14.37
2018-09-03T19:34:14.051Z,14.57
2018-09-03T19:36:42.435Z,13.87
2018-09-03T19:39:10.785Z,14.67
2018-09-03T19:41:39.641Z,14.77
2018-09-03T19:44:08.237Z,14.10
2018-09-03T19:46:36.576Z,14.63
2018-09-03T19:49:04.936Z,15.10
2018-09-03T19:51:33.293Z,13.37
2018-09-03T19:54:01.660Z,13.30
2018-09-03T19:56:31.131Z,12.70
2018-09-03T19:58:59.484Z,13.77
2018-09-03T20:01:27.826Z,14.27
2018-09-03T20:03:56.176Z,13.27
2018-09-03T20:06:24.509Z,13.03
2018-09-03T20:08:52.920Z,12.70
2018-09-03T20:11:21.239Z,12.60
2018-09-03T20:13:49.584Z,13.07
2018-09-03T20:16:18.472Z,13.40
2018-09-03T20:18:46.816Z,12.83
2018-09-03T20:21:15.168Z,12.67
2018-09-03T20:23:43.582Z,14.37
2018-09-03T20:26:11.859Z,14.20
2018-09-03T20:28:40.228Z,13.50
2018-09-03T20:31:09.106Z,13.37
2018-09-03T20:33:37.412Z,13.17
2018-09-03T20:36:05.753Z,12.60
2018-09-03T20:38:34.120Z,13.33
2018-09-03T20:41:02.463Z,13.27
2018-09-03T20:43:30.956Z,13.13
2018-09-03T20:45:59.288Z,27.70
2018-09-03T20:48:27.660Z,13.67
2018-09-03T20:50:56.269Z,14.30
2018-09-03T20:53:24.624Z,12.77
2018-09-03T20:55:52.984Z,13.00
2018-09-03T20:58:21.392Z,13.93
2018-09-03T21:00:51.391Z,14.13
2018-09-03T21:03:20.084Z,14.77
2018-09-03T21:05:48.400Z,14.57
2018-09-03T21:08:17.044Z,14.07
2018-09-03T21:10:45.415Z,14.43
2018-09-03T21:13:13.781Z,14.47
2018-09-03T21:15:42.971Z,13.30
2018-09-03T21:18:11.353Z,13.07
2018-09-03T21:20:39.696Z,12.93
2018-09-03T21:23:08.028Z,13.83
2018-09-03T21:25:36.409Z,12.33
2018-09-03T21:28:04.776Z,12.57
2018-09-03T21:30:33.119Z,13.30
2018-09-03T21:33:01.445Z,12.83
2018-09-03T21:35:29.784Z,13.47
2018-09-03T21:37:58.168Z,13.30
2018-09-03T21:40:26.532Z,13.17
2018-09-03T21:42:54.881Z,14.40
2018-09-03T21:45:23.258Z,14.40
2018-09-03T21:47:51.608Z,15.10
2018-09-03T21:50:20.004Z,14.80
2018-09-03T21:52:48.328Z,13.90
2018-09-03T21:55:16.681Z,14.63
2018-09-03T21:57:45.012Z,13.90
2018-09-03T22:00:13.397Z,13.93
2018-09-03T22:02:41.784Z,15.23
2018-09-03T22:05:10.136Z,15.23
2018-09-03T22:07:38.992Z,13.57
2018-09-03T22:10:07.436Z,12.50
2018-09-03T22:12:35.786Z,12.57
2018-09-03T22:15:04.185Z,13.47
2018-09-03T22:17:32.504Z,13.03
2018-09-03T22:20:00.856Z,12.20
2018-09-03T22:22:29.192Z,14.13
2018-09-03T22:24:58.355Z,12.67
2018-09-03T22:27:26.692Z,12.30
2018-09-03T22:29:55.059Z,12.20
2018-09-03T22:32:23.420Z,13.23
2018-09-03T22:34:51.860Z,13.13
2018-09-03T22:37:20.180Z,14.33
2018-09-03T22:39:49.112Z,15.83
2018-09-03T22:42:17.688Z,17.67
2018-09-03T22:44:46.048Z,21.77
2018-09-03T22:47:14.376Z,22.60
2018-09-03T22:49:42.732Z,22.17
2018-09-03T22:52:11.071Z,21.77
2018-09-03T22:54:39.415Z,23.30
2018-09-03T22:57:07.788Z,22.00
2018-09-03T22:59:36.148Z,22.83
2018-09-03T23:02:04.525Z,22.90
2018-09-03T23:04:32.872Z,23.30
2018-09-03T23:07:01.572Z,21.63
2018-09-03T23:09:29.936Z,22.90
2018-09-03T23:11:58.276Z,22.93
2018-09-03T23:14:27.045Z,24.30
2018-09-03T23:16:55.395Z,25.63
2018-09-03T23:19:23.900Z,24.23
2018-09-03T23:21:52.257Z,24.40
2018-09-03T23:24:20.590Z,23.30
2018-09-03T23:26:48.927Z,23.40
2018-09-03T23:29:17.248Z,24.83
2018-09-03T23:31:45.627Z,25.27
2018-09-03T23:34:14.074Z,25.37
2018-09-03T23:36:42.424Z,26.57
2018-09-03T23:39:10.748Z,25.23
2018-09-03T23:41:39.109Z,24.63
2018-09-03T23:44:07.579Z,24.13
2018-09-03T23:46:36.576Z,23.83
2018-09-03T23:49:04.931Z,24.37
2018-09-03T23:51:33.288Z,23.80
2018-09-03T23:54:01.604Z,25.83
2018-09-03T23:56:29.948Z,25.50
2018-09-03T23:58:58.432Z,24.73
